Terminal Aerodrome Forecast
Issued by NWS

Home | Current Version | Previous Version | Text Only | Print | Product List | Glossary Off
Versions: 1 2 3 4 5 6 7 8 9 10 11 12 13 14 15 16 17 18 19 20

000
FTUS43 KTOP 270856 AAA
TAFMHK
TAF AMD
KMHK 270856Z 2709/2806 25003KT P6SM BKN250
     FM271200 18006KT P6SM SCT060 BKN120
     FM271900 17012KT P6SM SCT200
     FM280200 17004KT P6SM SCT200=

USA.gov is the U.S. government's official web portal to all federal, state and local government web resources and services.